createdAt,value
2018-10-19T00:02:16.367Z,12.30
2018-10-19T00:04:44.332Z,12.40
2018-10-19T00:07:12.312Z,12.20
2018-10-19T00:09:40.278Z,12.20
2018-10-19T00:12:08.284Z,12.10
2018-10-19T00:14:36.518Z,12.00
2018-10-19T00:17:04.723Z,12.00
2018-10-19T00:19:32.698Z,12.00
2018-10-19T00:22:00.716Z,12.10
2018-10-19T00:24:28.724Z,12.10
2018-10-19T00:26:56.800Z,12.10
2018-10-19T00:29:24.769Z,12.10
2018-10-19T00:31:52.757Z,12.10
2018-10-19T00:34:20.874Z,12.00
2018-10-19T00:36:48.944Z,12.00
2018-10-19T00:39:17.263Z,11.90
2018-10-19T00:41:45.089Z,11.90
2018-10-19T00:44:13.071Z,11.80
2018-10-19T00:46:41.058Z,11.80
2018-10-19T00:49:09.402Z,11.70
2018-10-19T00:51:38.002Z,11.70
2018-10-19T00:54:06.280Z,11.80
2018-10-19T00:56:34.285Z,11.80
2018-10-19T00:59:02.364Z,11.80
2018-10-19T01:01:30.303Z,11.70
2018-10-19T01:03:58.334Z,11.70
2018-10-19T01:06:26.333Z,11.60
2018-10-19T01:08:54.331Z,11.50
2018-10-19T01:11:22.462Z,11.50
2018-10-19T01:13:50.470Z,11.60
2018-10-19T01:16:18.464Z,11.70
2018-10-19T01:18:46.484Z,11.60
2018-10-19T01:21:14.543Z,11.50
2018-10-19T01:23:42.491Z,11.60
2018-10-19T01:26:10.470Z,11.90
2018-10-19T01:28:38.448Z,12.30
2018-10-19T01:31:06.462Z,12.40
2018-10-19T01:33:34.478Z,12.60
2018-10-19T01:36:02.448Z,12.60
2018-10-19T01:38:30.430Z,12.60
2018-10-19T01:40:58.443Z,12.60
2018-10-19T01:43:26.465Z,12.70
2018-10-19T01:45:56.928Z,12.60
2018-10-19T01:48:25.480Z,12.50
2018-10-19T01:50:53.742Z,12.50
2018-10-19T01:53:21.708Z,12.50
2018-10-19T01:55:49.680Z,12.50
2018-10-19T01:58:17.849Z,12.50
2018-10-19T02:00:45.843Z,12.40
2018-10-19T02:03:13.856Z,12.40
2018-10-19T02:05:41.781Z,12.30
2018-10-19T02:08:10.447Z,12.30
2018-10-19T02:10:38.641Z,12.30
2018-10-19T02:13:06.920Z,12.30
2018-10-19T02:15:34.984Z,12.20
2018-10-19T02:18:02.972Z,12.10
2018-10-19T02:20:30.996Z,11.90
2018-10-19T02:22:58.973Z,11.70
2018-10-19T02:25:26.955Z,11.70
2018-10-19T02:27:54.936Z,11.70
2018-10-19T02:30:22.905Z,11.60
2018-10-19T02:32:50.861Z,11.50
2018-10-19T02:35:19.276Z,11.40
2018-10-19T02:37:47.092Z,11.40
2018-10-19T02:40:15.073Z,11.30
2018-10-19T02:42:43.127Z,11.30
2018-10-19T02:45:11.508Z,11.20
2018-10-19T02:47:39.678Z,11.20
2018-10-19T02:50:08.410Z,11.20
2018-10-19T02:52:36.653Z,11.10
2018-10-19T02:55:05.062Z,11.10
2018-10-19T02:57:33.105Z,11.00
2018-10-19T03:00:01.094Z,11.00
2018-10-19T03:02:29.111Z,11.00
2018-10-19T03:04:57.113Z,11.00
2018-10-19T03:07:25.099Z,10.90
2018-10-19T03:09:53.079Z,10.90
2018-10-19T03:12:21.103Z,11.00
2018-10-19T03:14:49.082Z,11.00
2018-10-19T03:17:17.186Z,10.90
2018-10-19T03:19:45.032Z,10.90
2018-10-19T03:22:19.530Z,10.90
2018-10-19T03:24:47.524Z,10.80
2018-10-19T03:27:15.637Z,10.80
2018-10-19T03:29:43.646Z,10.90
2018-10-19T03:32:11.633Z,10.80
2018-10-19T03:34:39.630Z,10.80
2018-10-19T03:37:07.661Z,10.80
2018-10-19T03:39:35.626Z,10.80
2018-10-19T03:42:03.593Z,10.70
2018-10-19T03:44:31.571Z,10.70
2018-10-19T03:46:59.546Z,10.70
2018-10-19T03:49:27.509Z,10.70
2018-10-19T03:51:55.487Z,10.70
2018-10-19T03:54:23.462Z,10.60
2018-10-19T03:56:51.488Z,10.60
2018-10-19T03:59:19.546Z,10.60
2018-10-19T04:01:47.447Z,10.60
2018-10-19T04:04:15.436Z,10.60
2018-10-19T04:06:43.566Z,10.60
2018-10-19T04:09:13.103Z,10.50
2018-10-19T04:11:41.143Z,10.50
2018-10-19T04:14:10.465Z,10.40
2018-10-19T04:16:38.516Z,10.40
2018-10-19T04:19:06.794Z,10.30
2018-10-19T04:21:34.804Z,10.20
2018-10-19T04:24:03.163Z,10.20
2018-10-19T04:26:31.213Z,10.20
2018-10-19T04:28:59.202Z,10.20
2018-10-19T04:31:27.367Z,10.20
2018-10-19T04:33:55.340Z,10.20
2018-10-19T04:36:23.321Z,10.20
2018-10-19T04:38:51.325Z,10.20
2018-10-19T04:41:19.450Z,10.20
2018-10-19T04:43:47.336Z,10.10
2018-10-19T04:46:15.333Z,10.10
2018-10-19T04:48:43.301Z,10.10
2018-10-19T04:51:11.398Z,10.00
2018-10-19T04:53:39.348Z,10.00
2018-10-19T04:56:07.293Z,10.10
2018-10-19T04:58:35.257Z,9.90
2018-10-19T05:01:09.907Z,9.90
2018-10-19T05:03:37.873Z,9.90
2018-10-19T05:06:05.978Z,9.90
2018-10-19T05:08:33.913Z,9.90
2018-10-19T05:11:02.174Z,9.80
2018-10-19T05:13:30.130Z,9.80
2018-10-19T05:15:58.115Z,9.70
2018-10-19T05:18:26.104Z,9.70
2018-10-19T05:20:54.158Z,9.70
2018-10-19T05:23:22.166Z,9.70
2018-10-19T05:25:50.190Z,9.70
2018-10-19T05:28:18.141Z,9.70
2018-10-19T05:30:46.133Z,9.70
2018-10-19T05:33:14.116Z,9.70
2018-10-19T05:35:49.083Z,9.70
2018-10-19T05:38:17.146Z,9.60
2018-10-19T05:40:45.117Z,9.60
2018-10-19T05:43:13.246Z,9.60
2018-10-19T05:45:48.067Z,9.60
2018-10-19T05:48:16.066Z,9.60
2018-10-19T05:50:44.047Z,9.60
2018-10-19T05:53:12.115Z,9.60
2018-10-19T05:55:40.090Z,9.60
2018-10-19T05:58:08.190Z,9.60
2018-10-19T06:00:36.162Z,9.60
2018-10-19T06:03:04.134Z,9.60
2018-10-19T06:05:32.124Z,9.70
2018-10-19T06:08:00.129Z,9.60
2018-10-19T06:10:28.056Z,9.60
2018-10-19T06:12:56.032Z,9.70
2018-10-19T06:15:30.834Z,9.70
2018-10-19T06:17:58.824Z,9.70
2018-10-19T06:20:26.794Z,9.70
2018-10-19T06:22:54.962Z,9.70
2018-10-19T06:25:22.937Z,9.70
2018-10-19T06:27:50.941Z,9.60
2018-10-19T06:30:18.969Z,9.60
2018-10-19T06:32:46.951Z,9.50
2018-10-19T06:35:14.988Z,9.50
2018-10-19T06:37:42.966Z,9.60
2018-10-19T06:40:10.966Z,9.60
2018-10-19T06:42:39.007Z,9.60
2018-10-19T06:45:07.341Z,9.60
2018-10-19T06:47:35.326Z,9.70
2018-10-19T06:50:03.491Z,9.70
2018-10-19T06:52:31.393Z,9.80
2018-10-19T06:54:59.380Z,9.80
2018-10-19T06:57:27.344Z,9.70
2018-10-19T06:59:55.324Z,9.60
2018-10-19T07:02:23.341Z,9.70
2018-10-19T07:04:51.309Z,9.80
2018-10-19T07:07:19.322Z,9.90
2018-10-19T07:09:47.284Z,9.80
2018-10-19T07:12:15.495Z,9.80
2018-10-19T07:14:43.475Z,9.80
2018-10-19T07:17:11.441Z,9.80
2018-10-19T07:19:39.368Z,9.90
2018-10-19T07:22:07.377Z,9.90
2018-10-19T07:24:35.434Z,9.90
2018-10-19T07:27:03.520Z,10.00
2018-10-19T07:29:31.474Z,10.00
2018-10-19T07:31:59.559Z,9.80
2018-10-19T07:34:27.500Z,9.70
2018-10-19T07:36:55.469Z,9.80
2018-10-19T07:39:23.469Z,9.80
2018-10-19T07:41:51.439Z,9.90
2018-10-19T07:44:19.420Z,9.80
2018-10-19T07:46:47.408Z,9.90
2018-10-19T07:49:15.396Z,10.00
2018-10-19T07:51:43.410Z,10.20
2018-10-19T07:54:11.438Z,10.20
2018-10-19T07:56:39.438Z,10.20
2018-10-19T07:59:07.809Z,10.20
2018-10-19T08:01:35.772Z,10.30
2018-10-19T08:04:03.781Z,10.40
2018-10-19T08:06:31.856Z,10.50
2018-10-19T08:08:59.844Z,10.60
2018-10-19T08:11:27.877Z,10.60
2018-10-19T08:13:55.802Z,10.50
2018-10-19T08:16:23.770Z,10.50
2018-10-19T08:18:51.852Z,10.60
2018-10-19T08:21:19.877Z,10.80
2018-10-19T08:23:47.864Z,10.70
2018-10-19T08:26:15.923Z,10.90
2018-10-19T08:28:43.810Z,10.90
2018-10-19T08:31:11.794Z,11.00
2018-10-19T08:33:39.757Z,10.90
2018-10-19T08:36:07.735Z,11.00
2018-10-19T08:38:35.736Z,11.10
2018-10-19T08:41:03.934Z,11.10
2018-10-19T08:43:32.152Z,11.20
2018-10-19T08:46:05.659Z,11.30
2018-10-19T08:48:33.656Z,11.30
2018-10-19T08:51:01.690Z,11.40
2018-10-19T08:53:29.731Z,11.40
2018-10-19T08:55:58.092Z,11.40
2018-10-19T08:58:26.185Z,11.40
2018-10-19T09:00:54.259Z,11.50
2018-10-19T09:03:22.280Z,11.50
2018-10-19T09:05:50.216Z,11.60
2018-10-19T09:08:18.297Z,11.60
2018-10-19T09:10:46.345Z,11.70
2018-10-19T09:13:14.421Z,11.80
2018-10-19T09:15:42.391Z,11.80
2018-10-19T09:18:10.349Z,12.20
2018-10-19T09:20:38.345Z,12.30
2018-10-19T09:23:06.364Z,12.60
2018-10-19T09:25:34.336Z,12.60
2018-10-19T09:28:02.330Z,12.50
2018-10-19T09:30:30.306Z,12.50
2018-10-19T09:32:58.496Z,12.60
2018-10-19T09:35:26.483Z,12.80
2018-10-19T09:37:54.492Z,12.50
2018-10-19T09:40:22.573Z,12.50
2018-10-19T09:42:50.472Z,12.50
2018-10-19T09:45:18.449Z,12.50
2018-10-19T09:47:46.428Z,12.80
2018-10-19T09:50:14.440Z,13.10
2018-10-19T09:52:42.437Z,12.80
2018-10-19T09:55:10.495Z,12.80
2018-10-19T09:57:38.614Z,12.90
2018-10-19T10:00:15.524Z,12.90
2018-10-19T10:02:43.823Z,12.90
2018-10-19T10:05:11.872Z,12.80
2018-10-19T10:07:39.875Z,13.00
2018-10-19T10:10:07.871Z,12.90
2018-10-19T10:12:35.896Z,13.10
2018-10-19T10:15:04.049Z,13.20
2018-10-19T10:17:31.864Z,13.20
2018-10-19T10:19:59.878Z,13.20
2018-10-19T10:22:27.869Z,13.20
2018-10-19T10:24:55.996Z,13.10
2018-10-19T10:27:23.869Z,13.20
2018-10-19T10:29:51.878Z,13.50
2018-10-19T10:32:19.916Z,13.60
2018-10-19T10:34:47.897Z,13.50
2018-10-19T10:37:16.038Z,13.60
2018-10-19T10:39:43.952Z,13.40
2018-10-19T10:42:11.933Z,13.60
2018-10-19T10:44:39.933Z,13.70
2018-10-19T10:47:08.413Z,14.10
2018-10-19T10:49:36.372Z,14.40
2018-10-19T10:52:04.616Z,14.70
2018-10-19T10:54:32.604Z,14.80
2018-10-19T10:57:00.568Z,14.90
2018-10-19T10:59:28.726Z,15.40
2018-10-19T11:01:56.693Z,16.70
2018-10-19T11:04:24.681Z,18.10
2018-10-19T11:06:53.460Z,19.30
2018-10-19T11:09:21.444Z,19.50
2018-10-19T11:11:49.416Z,19.30
2018-10-19T11:14:17.454Z,20.20
2018-10-19T11:16:45.457Z,20.30
2018-10-19T11:19:13.509Z,20.40
2018-10-19T11:21:41.441Z,20.00
2018-10-19T11:24:09.454Z,20.30
2018-10-19T11:26:37.368Z,22.90
2018-10-19T11:29:05.559Z,25.20
2018-10-19T11:31:33.525Z,25.60
2018-10-19T11:34:01.559Z,24.70
2018-10-19T11:36:29.490Z,26.60
2018-10-19T11:38:57.555Z,27.30
2018-10-19T11:41:25.573Z,27.40
2018-10-19T11:43:53.633Z,23.30
2018-10-19T11:46:21.617Z,23.80
2018-10-19T11:48:49.656Z,24.60
2018-10-19T11:51:17.622Z,26.50
2018-10-19T11:53:45.636Z,24.40
2018-10-19T11:56:13.624Z,26.00
2018-10-19T11:58:41.685Z,24.20
2018-10-19T12:01:09.761Z,23.40
2018-10-19T12:03:37.993Z,25.30
2018-10-19T12:06:06.518Z,25.40
2018-10-19T12:08:34.624Z,23.50
2018-10-19T12:11:02.681Z,22.40
2018-10-19T12:13:30.665Z,24.00
2018-10-19T12:15:58.681Z,27.10
2018-10-19T12:18:26.726Z,28.10
2018-10-19T12:20:54.772Z,27.20
2018-10-19T12:23:22.779Z,28.70
2018-10-19T12:25:50.860Z,29.90
2018-10-19T12:28:18.871Z,29.50
2018-10-19T12:30:47.030Z,28.30
2018-10-19T12:33:15.122Z,26.10
2018-10-19T12:35:43.057Z,24.90
2018-10-19T12:38:11.164Z,23.80
2018-10-19T12:40:39.168Z,24.30
2018-10-19T12:43:07.390Z,23.30
2018-10-19T12:46:46.875Z,23.90
2018-10-19T12:49:16.896Z,23.60
2018-10-19T12:51:45.438Z,25.10
2018-10-19T12:54:13.436Z,26.00
2018-10-19T12:56:41.578Z,24.80
2018-10-19T12:59:09.968Z,24.70
2018-10-19T13:01:38.961Z,23.90
2018-10-19T13:04:06.986Z,24.10
2018-10-19T13:06:34.969Z,24.00
2018-10-19T13:09:04.941Z,23.10
2018-10-19T13:11:32.894Z,22.40
2018-10-19T13:14:00.881Z,22.20
2018-10-19T13:16:28.868Z,22.60
2018-10-19T13:18:56.843Z,24.60
2018-10-19T13:21:24.861Z,23.80
2018-10-19T13:23:52.895Z,25.30
2018-10-19T13:26:20.849Z,24.10
2018-10-19T13:28:48.852Z,24.70
2018-10-19T13:31:16.852Z,26.90
2018-10-19T13:33:44.827Z,24.40
2018-10-19T13:36:12.924Z,24.90
2018-10-19T13:38:41.147Z,25.60
2018-10-19T13:41:09.213Z,26.40
2018-10-19T13:43:37.600Z,27.50
2018-10-19T13:46:05.565Z,27.00
2018-10-19T13:48:33.634Z,26.30
2018-10-19T13:51:01.712Z,24.70
2018-10-19T13:53:29.658Z,24.60
2018-10-19T13:55:57.677Z,26.00
2018-10-19T13:58:25.719Z,27.10
2018-10-19T14:00:53.668Z,25.80
2018-10-19T14:03:21.645Z,26.60
2018-10-19T14:05:50.788Z,25.90
2018-10-19T14:08:18.813Z,26.20
2018-10-19T14:10:46.777Z,26.60
2018-10-19T14:13:14.905Z,24.30
2018-10-19T14:15:42.965Z,22.90
2018-10-19T14:18:10.991Z,22.30
2018-10-19T14:20:38.972Z,22.40
2018-10-19T14:23:07.052Z,22.20
2018-10-19T14:25:34.997Z,22.60
2018-10-19T14:28:03.046Z,23.50
2018-10-19T14:30:31.117Z,22.70
2018-10-19T14:32:59.998Z,23.50
2018-10-19T14:35:27.974Z,23.80
2018-10-19T14:37:55.993Z,23.60
2018-10-19T14:40:23.993Z,23.60
2018-10-19T14:42:52.058Z,24.30
2018-10-19T14:45:20.065Z,23.70
2018-10-19T14:47:48.464Z,22.60
2018-10-19T14:50:17.593Z,21.90
2018-10-19T14:52:48.520Z,21.30
2018-10-19T14:55:17.807Z,21.70
2018-10-19T14:57:45.834Z,21.90
2018-10-19T15:00:16.228Z,20.80
2018-10-19T15:02:44.221Z,20.70
2018-10-19T15:05:13.621Z,19.10
2018-10-19T15:07:41.709Z,18.00
2018-10-19T15:10:15.133Z,17.70
2018-10-19T15:12:43.385Z,18.30
2018-10-19T15:15:13.436Z,18.60
2018-10-19T15:17:41.428Z,17.50
2018-10-19T15:20:09.416Z,17.20
2018-10-19T15:22:37.417Z,16.50
2018-10-19T15:25:06.093Z,16.70
2018-10-19T15:27:34.077Z,16.30
2018-10-19T15:30:02.129Z,16.10
2018-10-19T15:32:30.085Z,15.90
2018-10-19T15:34:58.054Z,15.40
2018-10-19T15:37:26.456Z,15.10
2018-10-19T15:39:54.508Z,15.00
2018-10-19T15:42:22.518Z,15.20
2018-10-19T15:44:50.548Z,15.30
2018-10-19T15:47:18.823Z,15.30
2018-10-19T15:49:46.807Z,15.30
2018-10-19T15:52:14.910Z,15.20
2018-10-19T15:54:42.853Z,15.10
2018-10-19T15:57:10.916Z,15.20
2018-10-19T15:59:38.865Z,15.30
2018-10-19T16:02:06.858Z,15.20
2018-10-19T16:04:34.827Z,15.10
2018-10-19T16:07:02.785Z,14.90
2018-10-19T16:09:30.950Z,14.80
2018-10-19T16:11:58.931Z,14.90
2018-10-19T16:14:26.897Z,14.90
2018-10-19T16:16:54.876Z,14.90
2018-10-19T16:19:22.871Z,15.00
2018-10-19T16:21:50.852Z,15.20
2018-10-19T16:24:18.854Z,15.40
2018-10-19T16:26:46.843Z,15.40
2018-10-19T16:29:14.845Z,15.40
2018-10-19T16:31:42.870Z,15.30
2018-10-19T16:34:10.890Z,15.30
2018-10-19T16:36:39.009Z,15.30
2018-10-19T16:39:07.919Z,15.20
2018-10-19T16:41:35.852Z,15.10
2018-10-19T16:44:04.165Z,15.10
2018-10-19T16:46:32.216Z,15.20
2018-10-19T16:49:00.288Z,15.10
2018-10-19T16:51:28.269Z,15.20
2018-10-19T16:53:56.326Z,15.10
2018-10-19T16:56:24.270Z,14.90
2018-10-19T16:58:52.247Z,14.80
2018-10-19T17:01:20.249Z,14.80
2018-10-19T17:03:48.249Z,14.70
2018-10-19T17:06:16.504Z,14.60
2018-10-19T17:08:44.417Z,14.60
2018-10-19T17:11:12.409Z,14.60
2018-10-19T17:13:40.406Z,14.60
2018-10-19T17:16:08.493Z,14.60
2018-10-19T17:18:36.515Z,14.50
2018-10-19T17:21:04.817Z,14.40
2018-10-19T17:23:32.852Z,14.40
2018-10-19T17:26:00.868Z,14.30
2018-10-19T17:28:28.893Z,14.20
2018-10-19T17:30:57.266Z,14.20
2018-10-19T17:33:25.303Z,14.10
2018-10-19T17:35:53.176Z,14.10
2018-10-19T17:38:21.177Z,14.10
2018-10-19T17:40:49.788Z,14.00
2018-10-19T17:43:17.860Z,14.00
2018-10-19T17:45:45.869Z,14.00
2018-10-19T17:48:13.972Z,14.00
2018-10-19T17:50:41.889Z,13.90
2018-10-19T17:53:09.939Z,13.90
2018-10-19T17:55:37.876Z,13.90
2018-10-19T17:58:05.877Z,13.90
2018-10-19T18:00:33.846Z,13.90
2018-10-19T18:03:01.874Z,13.80
2018-10-19T18:05:29.798Z,13.80
2018-10-19T18:07:57.773Z,13.90
2018-10-19T18:10:25.780Z,14.00
2018-10-19T18:12:53.756Z,13.90
2018-10-19T18:15:21.757Z,13.90
2018-10-19T18:17:49.729Z,13.90
2018-10-19T18:20:17.748Z,13.90
2018-10-19T18:22:45.911Z,13.90
2018-10-19T18:25:14.870Z,13.90
2018-10-19T18:27:42.849Z,13.90
2018-10-19T18:30:10.907Z,13.90
2018-10-19T18:32:39.153Z,13.90
2018-10-19T18:35:08.517Z,13.90
2018-10-19T18:37:36.464Z,14.00
2018-10-19T18:40:05.773Z,14.00
2018-10-19T18:42:33.740Z,13.90
2018-10-19T18:45:01.737Z,14.00
2018-10-19T18:47:29.720Z,14.00
2018-10-19T18:49:57.752Z,14.00
2018-10-19T18:52:25.730Z,14.00
2018-10-19T18:54:53.745Z,14.00
2018-10-19T18:57:21.811Z,13.90
2018-10-19T18:59:50.190Z,13.90
2018-10-19T19:02:18.152Z,14.00
2018-10-19T19:04:46.118Z,13.90
2018-10-19T19:07:14.128Z,13.90
2018-10-19T19:09:46.365Z,13.90
2018-10-19T19:12:14.408Z,13.70
2018-10-19T19:14:42.467Z,13.70
2018-10-19T19:17:10.444Z,13.70
2018-10-19T19:19:38.449Z,13.70
2018-10-19T19:22:06.456Z,13.70
2018-10-19T19:24:39.989Z,13.60
2018-10-19T19:27:08.018Z,13.60
2018-10-19T19:29:36.052Z,13.50
2018-10-19T19:32:04.172Z,13.50
2018-10-19T19:34:33.020Z,13.50
2018-10-19T19:37:01.041Z,13.50
2018-10-19T19:39:29.047Z,13.50
2018-10-19T19:42:02.637Z,13.40
2018-10-19T19:44:30.679Z,13.40
2018-10-19T19:46:58.735Z,13.40
2018-10-19T19:49:32.032Z,13.40
2018-10-19T19:51:59.969Z,13.40
2018-10-19T19:54:27.963Z,13.40
2018-10-19T19:56:56.093Z,13.40
2018-10-19T19:59:24.091Z,13.30
2018-10-19T20:01:52.114Z,13.30
2018-10-19T20:04:20.098Z,13.20
2018-10-19T20:06:48.736Z,13.20
2018-10-19T20:09:16.705Z,13.20
2018-10-19T20:11:44.830Z,13.20
2018-10-19T20:14:12.867Z,13.20
2018-10-19T20:16:40.972Z,13.10
2018-10-19T20:19:08.920Z,12.90
2018-10-19T20:21:36.885Z,12.80
2018-10-19T20:24:05.035Z,12.80
2018-10-19T20:26:33.049Z,12.60
2018-10-19T20:29:01.234Z,12.40
2018-10-19T20:31:29.413Z,12.30
2018-10-19T20:33:57.425Z,12.20
2018-10-19T20:36:32.201Z,12.20
2018-10-19T20:39:00.177Z,12.10
2018-10-19T20:41:28.226Z,11.90
2018-10-19T20:43:56.162Z,11.80
2018-10-19T20:46:24.110Z,11.80
2018-10-19T20:48:52.106Z,11.70
2018-10-19T20:51:20.209Z,11.70
2018-10-19T20:53:48.163Z,11.60
2018-10-19T20:56:16.176Z,11.50
2018-10-19T20:58:44.125Z,11.50
2018-10-19T21:01:12.128Z,11.60
2018-10-19T21:03:40.100Z,11.60
2018-10-19T21:06:08.064Z,11.50
2018-10-19T21:08:36.066Z,11.40
2018-10-19T21:11:04.094Z,11.40
2018-10-19T21:13:32.171Z,11.50
2018-10-19T21:16:00.081Z,11.50
2018-10-19T21:18:28.084Z,11.50
2018-10-19T21:20:56.076Z,11.50
2018-10-19T21:23:24.053Z,11.40
2018-10-19T21:25:52.037Z,11.30
2018-10-19T21:28:20.042Z,11.30
2018-10-19T21:30:48.018Z,11.40
2018-10-19T21:33:16.026Z,11.50
2018-10-19T21:35:43.998Z,11.60
2018-10-19T21:38:12.088Z,11.60
2018-10-19T21:40:39.954Z,11.60
2018-10-19T21:43:08.068Z,11.60
2018-10-19T21:45:36.065Z,11.60
2018-10-19T21:48:04.221Z,11.60
2018-10-19T21:50:32.213Z,11.70
2018-10-19T21:53:00.304Z,11.60
2018-10-19T21:55:28.258Z,11.60
2018-10-19T21:57:56.258Z,11.60
2018-10-19T22:00:24.247Z,11.50
2018-10-19T22:02:52.239Z,11.50
2018-10-19T22:05:20.213Z,11.40
2018-10-19T22:07:48.200Z,11.40
2018-10-19T22:10:16.222Z,11.50
2018-10-19T22:12:44.197Z,11.40
2018-10-19T22:15:12.173Z,11.40
2018-10-19T22:17:40.158Z,11.40
2018-10-19T22:20:08.509Z,11.40
2018-10-19T22:22:36.581Z,11.40
2018-10-19T22:25:05.463Z,11.40
2018-10-19T22:27:33.386Z,11.40
2018-10-19T22:30:01.351Z,11.30
2018-10-19T22:32:29.296Z,11.30
2018-10-19T22:34:57.294Z,11.30
2018-10-19T22:37:31.925Z,11.20
2018-10-19T22:39:59.939Z,11.20
2018-10-19T22:42:27.899Z,11.10
2018-10-19T22:44:55.889Z,11.00
2018-10-19T22:47:23.847Z,10.90
2018-10-19T22:49:51.827Z,10.80
2018-10-19T22:52:19.788Z,10.60
2018-10-19T22:54:47.805Z,10.60
2018-10-19T22:57:15.776Z,10.60
2018-10-19T22:59:43.747Z,10.70
2018-10-19T23:02:11.757Z,10.80
2018-10-19T23:04:39.701Z,10.90
2018-10-19T23:07:07.718Z,10.80
2018-10-19T23:09:35.679Z,10.70
2018-10-19T23:12:03.602Z,10.60
2018-10-19T23:14:31.654Z,10.50
2018-10-19T23:16:59.618Z,10.60
2018-10-19T23:19:27.632Z,10.50
2018-10-19T23:21:55.613Z,10.50
2018-10-19T23:24:23.633Z,10.50
2018-10-19T23:26:51.604Z,10.30
2018-10-19T23:29:20.390Z,10.20
2018-10-19T23:31:48.358Z,10.10
2018-10-19T23:34:16.328Z,10.20
2018-10-19T23:36:44.300Z,10.10
2018-10-19T23:39:12.825Z,10.20
2018-10-19T23:41:41.203Z,10.20
2018-10-19T23:44:09.405Z,10.10
2018-10-19T23:46:37.617Z,10.10
2018-10-19T23:49:05.761Z,10.10
2018-10-19T23:51:33.666Z,10.00
2018-10-19T23:54:01.632Z,9.90
